createdAt,value
2019-04-16T00:03:33.948Z,101282.73
2019-04-16T00:08:49.532Z,101275.09
2019-04-16T00:14:04.243Z,101268.98
2019-04-16T00:19:10.046Z,101263.64
2019-04-16T00:24:40.267Z,101256.69
2019-04-16T00:29:45.990Z,101248.50
2019-04-16T00:34:51.479Z,101245.98
2019-04-16T00:39:57.130Z,101242.81
2019-04-16T00:45:02.843Z,101245.08
2019-04-16T00:50:09.168Z,101243.86
2019-04-16T00:55:14.811Z,101240.13
2019-04-16T01:00:20.355Z,101235.59
2019-04-16T01:05:25.821Z,101232.97
2019-04-16T01:10:31.284Z,101243.92
2019-04-16T01:15:36.724Z,101233.55
2019-04-16T01:20:43.209Z,101229.15
2019-04-16T01:25:49.513Z,101220.86
2019-04-16T01:31:19.661Z,101212.67
2019-04-16T01:36:43.986Z,101206.76
2019-04-16T01:41:50.347Z,101205.25
2019-04-16T01:46:56.744Z,101207.24
2019-04-16T01:52:02.193Z,101194.55
2019-04-16T01:57:07.635Z,101200.39
2019-04-16T02:02:15.563Z,101193.59
2019-04-16T02:07:20.238Z,101195.80
2019-04-16T02:12:25.683Z,101189.01
2019-04-16T02:17:31.117Z,101190.35
2019-04-16T02:22:36.524Z,101184.97
2019-04-16T02:27:41.972Z,101187.56
2019-04-16T02:32:47.432Z,101182.92
2019-04-16T02:37:52.817Z,101182.33
2019-04-16T02:43:04.100Z,101178.19
2019-04-16T02:48:05.428Z,101180.02
2019-04-16T02:53:28.307Z,101175.38
2019-04-16T02:58:38.508Z,101172.18
2019-04-16T03:03:48.838Z,101179.61
2019-04-16T03:08:54.328Z,101181.75
2019-04-16T03:13:59.856Z,101176.84
2019-04-16T03:19:08.788Z,101177.73
2019-04-16T03:24:14.212Z,101170.66
2019-04-16T03:29:19.649Z,101169.04
2019-04-16T03:34:25.063Z,101164.34
2019-04-16T03:39:30.516Z,101166.99
2019-04-16T03:44:37.272Z,101163.52
2019-04-16T03:49:42.980Z,101163.38
2019-04-16T03:54:48.402Z,101155.50
2019-04-16T03:59:53.837Z,101150.66
2019-04-16T04:05:01.556Z,101151.98
2019-04-16T04:10:06.781Z,101149.82
2019-04-16T04:15:12.206Z,101142.88
2019-04-16T04:20:18.904Z,101139.33
2019-04-16T04:25:24.730Z,101146.66
2019-04-16T04:30:30.148Z,101153.06
2019-04-16T04:35:35.609Z,101157.70
2019-04-16T04:40:44.722Z,101156.63
2019-04-16T04:45:48.492Z,101160.47
2019-04-16T04:50:53.972Z,101150.00
2019-04-16T04:55:59.445Z,101152.63
2019-04-16T05:01:04.885Z,101152.89
2019-04-16T05:06:11.671Z,101153.12
2019-04-16T05:11:17.218Z,101155.69
2019-04-16T05:16:22.847Z,101164.41
2019-04-16T05:21:28.308Z,101166.70
2019-04-16T05:26:36.620Z,101161.38
2019-04-16T05:31:44.743Z,101173.16
2019-04-16T05:36:50.280Z,101173.70
2019-04-16T05:41:56.028Z,101166.15
2019-04-16T05:47:01.767Z,101163.92
2019-04-16T05:52:07.199Z,101165.46
2019-04-16T05:57:16.101Z,101169.66
2019-04-16T06:02:40.490Z,101164.36
2019-04-16T06:07:46.072Z,101165.94
2019-04-16T06:13:12.621Z,101158.12
2019-04-16T06:18:37.976Z,101150.12
2019-04-16T06:24:19.176Z,101149.29
2019-04-16T06:29:41.913Z,101134.12
2019-04-16T06:35:15.366Z,101138.04
2019-04-16T06:40:46.339Z,101117.64
2019-04-16T06:46:05.472Z,101115.21
2019-04-16T06:51:31.634Z,101098.66
2019-04-16T06:56:50.282Z,101099.22
2019-04-16T07:02:12.194Z,101084.02
2019-04-16T07:07:40.297Z,101074.73
2019-04-16T07:12:46.499Z,101064.78
2019-04-16T07:17:52.339Z,101059.09
2019-04-16T07:22:58.506Z,101046.34
2019-04-16T07:28:25.772Z,101042.84
2019-04-16T07:33:44.827Z,101045.66
2019-04-16T07:39:28.779Z,101022.45
2019-04-16T07:44:36.424Z,101024.49
2019-04-16T07:49:45.272Z,101027.50
2019-04-16T07:55:12.657Z,101031.22
2019-04-16T08:00:18.669Z,101020.88
2019-04-16T08:05:27.685Z,101017.97
2019-04-16T08:10:31.992Z,101002.59
2019-04-16T08:15:37.937Z,101006.17
2019-04-16T08:20:43.724Z,101011.78
2019-04-16T08:25:55.088Z,101015.36
2019-04-16T08:30:57.268Z,101024.56
2019-04-16T08:36:03.130Z,101013.70
2019-04-16T08:41:12.351Z,101004.94
2019-04-16T08:46:16.820Z,101001.36
2019-04-16T08:51:30.163Z,100995.44
2019-04-16T08:56:30.224Z,100991.03
2019-04-16T09:01:36.123Z,100983.49
2019-04-16T09:06:45.800Z,100985.36
2019-04-16T09:11:58.229Z,101002.96
2019-04-16T09:17:11.294Z,100983.34
2019-04-16T09:22:17.258Z,100968.58
2019-04-16T09:27:41.948Z,100972.16
2019-04-16T09:32:51.863Z,100965.02
2019-04-16T09:38:22.560Z,100961.48
2019-04-16T09:43:28.928Z,100966.67
2019-04-16T09:48:35.522Z,100970.85
2019-04-16T09:53:41.396Z,100963.77
2019-04-16T09:58:48.051Z,100973.25
2019-04-16T10:03:54.420Z,100976.85
2019-04-16T10:09:00.740Z,100989.69
2019-04-16T10:14:06.310Z,101000.23
2019-04-16T10:19:13.789Z,100979.02
2019-04-16T10:24:38.229Z,100991.03
2019-04-16T10:29:43.798Z,100987.00
2019-04-16T10:34:49.502Z,100980.75
2019-04-16T10:40:09.868Z,100979.28
2019-04-16T10:45:40.461Z,100974.95
2019-04-16T10:51:01.198Z,100984.25
2019-04-16T10:56:24.053Z,100968.45
2019-04-16T11:01:35.206Z,100965.73
2019-04-16T11:06:43.205Z,100963.79
2019-04-16T11:11:48.782Z,100954.78
2019-04-16T11:16:54.584Z,100954.08
2019-04-16T11:22:03.932Z,100959.37
2019-04-16T11:27:07.427Z,100975.33
2019-04-16T11:32:15.066Z,100965.40
2019-04-16T11:37:20.503Z,100959.86
2019-04-16T11:42:26.057Z,100959.21
2019-04-16T11:47:34.247Z,100956.98
2019-04-16T11:52:40.039Z,100959.41
2019-04-16T11:57:45.754Z,100950.42
2019-04-16T12:03:22.629Z,100952.15
2019-04-16T12:08:45.579Z,100957.84
2019-04-16T12:14:00.106Z,100944.02
2019-04-16T12:19:22.892Z,100959.11
2019-04-16T12:24:48.796Z,100972.70
2019-04-16T12:30:13.328Z,100956.80
2019-04-16T12:35:35.705Z,100962.80
2019-04-16T12:41:05.989Z,100977.20
2019-04-16T12:46:36.335Z,100970.42
2019-04-16T12:51:48.742Z,100971.75
2019-04-16T12:57:16.653Z,100966.70
2019-04-16T13:02:41.948Z,100965.52
2019-04-16T13:08:11.114Z,100961.90
2019-04-16T13:13:34.805Z,100959.06
2019-04-16T13:19:00.431Z,100955.30
2019-04-16T13:24:09.313Z,100950.53
2019-04-16T13:29:17.458Z,100957.41
2019-04-16T13:34:23.039Z,100949.97
2019-04-16T13:39:50.843Z,100941.82
2019-04-16T13:45:18.841Z,100933.91
2019-04-16T13:50:35.339Z,100931.93
2019-04-16T13:55:55.562Z,100931.86
2019-04-16T14:01:10.569Z,100934.23
2019-04-16T14:06:16.335Z,100923.84
2019-04-16T14:11:21.779Z,100932.42
2019-04-16T14:16:27.361Z,100917.59
2019-04-16T14:21:32.960Z,100921.73
2019-04-16T14:26:38.812Z,100917.75
2019-04-16T14:31:46.159Z,100908.05
2019-04-16T14:36:53.283Z,100913.02
2019-04-16T14:41:58.938Z,100915.98
2019-04-16T14:47:04.419Z,100916.31
2019-04-16T14:52:09.907Z,100907.13
2019-04-16T14:57:15.620Z,100911.19
2019-04-16T15:02:32.033Z,100904.99
2019-04-16T15:07:44.128Z,100909.95
2019-04-16T15:13:00.418Z,100905.53
2019-04-16T15:18:16.566Z,100913.48
2019-04-16T15:23:56.683Z,100922.13
2019-04-16T15:29:07.322Z,100919.89
2019-04-16T15:34:16.048Z,100924.43
2019-04-16T15:39:27.671Z,100941.78
2019-04-16T15:44:45.825Z,100952.39
2019-04-16T15:49:56.674Z,100962.96
2019-04-16T15:55:24.411Z,100971.97
2019-04-16T16:00:50.528Z,100975.92
2019-04-16T16:06:00.617Z,100984.59
2019-04-16T16:11:10.295Z,100992.24
2019-04-16T16:16:17.977Z,100997.19
2019-04-16T16:21:22.992Z,100997.36
2019-04-16T16:26:28.439Z,101009.39
2019-04-16T16:31:35.696Z,101021.77
2019-04-16T16:36:41.582Z,101031.52
2019-04-16T16:41:46.979Z,101038.26
2019-04-16T16:47:11.513Z,101047.99
2019-04-16T16:52:41.893Z,101060.42
2019-04-16T16:58:20.943Z,101068.88
2019-04-16T17:03:42.972Z,101075.68
2019-04-16T17:08:48.700Z,101085.61
2019-04-16T17:13:54.732Z,101096.96
2019-04-16T17:19:00.490Z,101106.47
2019-04-16T17:24:05.954Z,101112.27
2019-04-16T17:29:11.609Z,101110.42
2019-04-16T17:34:17.022Z,101120.43
2019-04-16T17:39:50.255Z,101125.33
2019-04-16T17:45:14.634Z,101128.07
2019-04-16T17:50:39.710Z,101147.61
2019-04-16T17:56:03.411Z,101157.44
2019-04-16T18:01:30.662Z,101164.53
2019-04-16T18:06:42.999Z,101171.02
2019-04-16T18:12:07.222Z,101175.55
2019-04-16T18:17:47.231Z,101188.09
2019-04-16T18:23:06.763Z,101197.52
2019-04-16T18:28:15.920Z,101206.33
2019-04-16T18:33:43.090Z,101208.67
2019-04-16T18:39:10.288Z,101216.64
2019-04-16T18:44:37.660Z,101219.13
2019-04-16T18:49:43.791Z,101224.34
2019-04-16T18:54:50.019Z,101233.41
2019-04-16T18:59:55.484Z,101237.61
2019-04-16T19:05:01.026Z,101248.60
2019-04-16T19:10:06.499Z,101254.55
2019-04-16T19:15:11.985Z,101262.02
2019-04-16T19:20:18.339Z,101263.41
2019-04-16T19:25:23.875Z,101276.91
2019-04-16T19:30:29.330Z,101280.97
2019-04-16T19:35:34.761Z,101281.36
2019-04-16T19:40:40.218Z,101286.61
2019-04-16T19:45:45.703Z,101291.80
2019-04-16T19:50:51.159Z,101300.04
2019-04-16T19:55:56.619Z,101303.76
2019-04-16T20:01:02.051Z,101311.06
2019-04-16T20:06:07.598Z,101308.28
2019-04-16T20:11:13.067Z,101308.63
2019-04-16T20:16:18.747Z,101318.05
2019-04-16T20:21:24.322Z,101317.83
2019-04-16T20:26:32.624Z,101320.82
2019-04-16T20:31:37.109Z,101315.95
2019-04-16T20:36:42.543Z,101321.20
2019-04-16T20:41:52.821Z,101318.66
2019-04-16T20:46:58.237Z,101322.09
2019-04-16T20:52:03.628Z,101326.50
2019-04-16T20:57:09.074Z,101327.47
2019-04-16T21:02:14.575Z,101331.47
2019-04-16T21:07:20.028Z,101337.53
2019-04-16T21:12:25.505Z,101339.15
2019-04-16T21:17:31.008Z,101336.80
2019-04-16T21:22:36.462Z,101337.73
2019-04-16T21:28:06.236Z,101343.83
2019-04-16T21:33:29.252Z,101343.91
2019-04-16T21:38:51.762Z,101344.72
2019-04-16T21:43:57.202Z,101349.09
2019-04-16T21:49:02.629Z,101349.66
2019-04-16T21:54:08.108Z,101347.16
2019-04-16T21:59:13.585Z,101347.11
2019-04-16T22:04:19.120Z,101348.28
2019-04-16T22:09:24.633Z,101350.39
2019-04-16T22:14:30.121Z,101358.38
2019-04-16T22:19:35.554Z,101364.31
2019-04-16T22:24:41.085Z,101367.30
2019-04-16T22:29:47.521Z,101371.05
2019-04-16T22:34:53.644Z,101376.82
2019-04-16T22:40:22.795Z,101373.66
2019-04-16T22:45:45.334Z,101376.73
2019-04-16T22:50:50.848Z,101382.86
2019-04-16T22:55:57.633Z,101378.53
2019-04-16T23:01:07.839Z,101381.13
2019-04-16T23:06:13.289Z,101388.67
2019-04-16T23:11:23.246Z,101391.89
2019-04-16T23:16:26.072Z,101395.28
2019-04-16T23:21:31.497Z,101394.47
2019-04-16T23:26:36.971Z,101395.59
2019-04-16T23:31:42.396Z,101393.86
2019-04-16T23:36:48.637Z,101395.04
2019-04-16T23:41:54.921Z,101399.11
2019-04-16T23:47:17.795Z,101394.30
2019-04-16T23:52:27.152Z,101396.06
2019-04-16T23:57:56.771Z,101400.70
